メインページ
METAR-TAF:

METAR-TAF

空港 :

ジブチ, ジブチ

ジブチ国際空港

緯度: 11-33N, 経度: 043-10E, 海抜: 49m

現時点の気象観測

当レポートは1時間51分前の10:00(UTC)に作成
の風 10kt
気温 39°C
湿度 48%
気圧 1008 hPa
視程: 8000m
高度2300ftの雲はほとんどない
煙霧

METAR: HDAM 241000Z 08010KT 8000 HZ FEW023 39/26 Q1008

時間: 14:51 (11:51 UTC)

予報

当レポートは51分前の11:00(UTC)に作成
予報は24日の 12時(UTC)から 25日の 12時(UTC)まで有効
の風 10kt
視程: 8000m
高度3000ftの雲はほとんどない, 積乱雲.
高度4000ftの雲は散在している
煙霧
24日の 15時(UTC)から 25日の 06時(UTC)まで徐々に
変向風 3kt
高度2000ftの雲は散在している
高度3000ftの雲は散在している

TAF: HDAM 241100Z 2412/2512 08010KT 9/9 8000 HZ FEW030CB SCT040 BECMG 2415/2506 VRB03KT SCT020 SCT030

4,000以上の空港の気象観測と天気予報(METAR報とTAF報)

利用可能な観測所は地図上に黄色い丸と赤い丸で示す。

丸の上にカーソルを重ねると観測所名を参照できる。

次にクリックすると気象観測と天気予報を参照できる。

マップの切り替え:黒色「×」印の緑ボタンをクリックして拡大、「-」印の緑ボタンをクリックして縮小、緑色の三角印をクリックして隣りの地図に切り替え


METAR-TAF: